ADDS METAR Data INFO
IDs: Format: Raw Decoded Include TAF

Data at: 2033 UTC 16 Dec 2017

KVOA 162015Z AUTO 08018KT 7SM OVC043 19/13 A3016 RMK A01
KVOA 161955Z AUTO 10015KT 7SM OVC042 19/13 A3017 RMK A01
KVOA 161935Z AUTO 09014KT 8SM FEW020 OVC042 19/13 A3018 RMK A01
KVOA 161915Z AUTO 09014KT 8SM FEW020 OVC041 19/13 A3019 RMK A01
KVOA 161855Z AUTO 08014KT 7SM FEW020 OVC041 19/13 A3019 RMK A01
KVOA 161835Z AUTO 08014KT 7SM SCT021 OVC041 19/12 A3020 RMK A01
KVOA 161815Z AUTO 08014KT 8SM SCT020 OVC041 19/12 A3021 RMK A01
KVOA 161755Z AUTO 08013KT 6SM HZ BKN020 BKN024 OVC042 18/12 A3022 RMK A01
KVOA 161735Z AUTO 08014KT 7SM SCT021 OVC043 18/12 A3023 RMK A01
KVOA 161715Z AUTO 08015KT 7SM OVC043 18/12 A3023 RMK A01
KVOA 161655Z AUTO 07014G20KT 7SM FEW022 OVC042 18/12 A3024 RMK A01
KVOA 161635Z AUTO 08014KT 7SM FEW023 OVC042 18/12 A3025 RMK A01
KVOA 161615Z AUTO 08012KT 7SM OVC041 18/11 A3026 RMK A01
KVOA 161555Z AUTO 07013KT 7SM OVC041 18/11 A3026 RMK A01
KVOA 161535Z AUTO 07014KT 7SM OVC041 17/11 A3025 RMK A01
KVOA 161515Z AUTO 06013KT 7SM OVC041 17/11 A3025 RMK A01
KVOA 161455Z AUTO 06014KT 6SM HZ SCT032 OVC041 16/10 A3025 RMK A01
KVOA 161435Z AUTO 06013KT 7SM OVC032 16/10 A3025 RMK A01
KVOA 161415Z AUTO 06012KT 7SM BKN033 OVC040 17/10 A3025 RMK A01
KVOA 161355Z AUTO 06012KT 7SM OVC039 16/10 A3024 RMK A01
KVOA 161335Z AUTO 07012KT 8SM BKN034 OVC044 17/09 A3024 RMK A01
KVOA 161315Z AUTO 06012KT 7SM OVC032 16/09 A3023 RMK A01
KVOA 161255Z AUTO 07011KT 8SM BKN033 OVC046 16/09 A3023 RMK A01
KVOA 161235Z AUTO 06012KT 8SM OVC045 16/09 A3022 RMK A01
KVOA 161215Z AUTO 06014KT 7SM OVC042 16/09 A3022 RMK A01
KVOA 161155Z AUTO 06011KT 7SM OVC042 15/09 A3022 RMK A01
KVOA 161135Z AUTO 05011KT 7SM OVC042 15/09 A3021 RMK A01
KVOA 161115Z AUTO 06012KT 7SM FEW033 OVC040 14/09 A3020 RMK A01
KVOA 161055Z AUTO 06011KT BKN034 OVC040 14/09 A3021 RMK A01
KVOA 161035Z AUTO 05011G16KT 6SM HZ SCT032 OVC039 14/09 A3020 RMK A01
KVOA 161015Z AUTO 05013KT 7SM OVC040 14/08 A3020 RMK A01
KVOA 160955Z AUTO 05014KT 6SM HZ OVC040 14/08 A3020 RMK A01
KVOA 160935Z AUTO 04013KT 7SM OVC039 14/08 A3020 RMK A01
KVOA 160915Z AUTO 04013KT 6SM HZ OVC039 14/08 A3020 RMK A01
KVOA 160855Z AUTO 04015KT 6SM HZ OVC038 13/08 A3020 RMK A01
KVOA 160835Z AUTO 04013KT 7SM OVC037 13/08 A3020 RMK A01
KVOA 160815Z AUTO 04013G18KT 7SM OVC038 13/08 A3020 RMK A01
KVOA 160755Z AUTO 04014G19KT 7SM FEW023 OVC040 13/08 A3021 RMK A01
KVOA 160735Z AUTO 02013KT 7SM BKN024 BKN028 BKN041 13/08 A3022 RMK A01
KVOA 160715Z AUTO 05014KT 7SM BKN023 OVC029 13/07 A3020 RMK A01
KVOA 160655Z AUTO 03015KT 8SM BKN022 BKN029 BKN090 13/07 A3020 RMK A01
KVOA 160635Z AUTO 02011G18KT 7SM BKN022 BKN031 BKN095 13/07 A3021 RMK A01
KVOA 160615Z AUTO 02012G17KT 7SM BKN023 BKN030 13/07 A3021 RMK A01
KVOA 160555Z AUTO 04013KT 7SM BKN022 BKN029 BKN033 13/07 A3021 RMK A01
KVOA 160535Z AUTO 03013KT 6SM HZ BKN023 OVC095 13/07 A3022 RMK A01
KVOA 160515Z AUTO 03014KT 6SM HZ FEW023 OVC090 13/08 A3022 RMK A01
KVOA 160455Z AUTO 04014KT 7SM OVC090 13/08 A3021 RMK A01
KVOA 160435Z AUTO 03013KT 6SM HZ OVC090 13/08 A3022 RMK A01
KVOA 160415Z AUTO 04016KT 6SM HZ FEW025 OVC095 13/08 A3021 RMK A01
KVOA 160355Z AUTO 04015KT 7SM FEW025 FEW070 OVC085 14/08 A3020 RMK A01
KVOA 160335Z AUTO 03014KT 7SM OVC075 14/08 A3020 RMK A01
KVOA 160315Z AUTO 03013G18KT 7SM OVC075 14/08 A3020 RMK A01
KVOA 160255Z AUTO 03013KT 7SM OVC075 14/08 A3019 RMK A01
KVOA 160235Z AUTO 02012KT 8SM OVC075 14/08 A3019 RMK A01
KVOA 160215Z AUTO 02013G18KT 7SM OVC075 14/08 A3019 RMK A01
KVOA 160155Z AUTO 03014KT 7SM OVC075 14/07 A3019 RMK A01
KVOA 160135Z AUTO 03015KT OVC075 14/07 A3017 RMK A01
KVOA 160115Z AUTO 03015KT 6SM HZ OVC075 14/08 A3018 RMK A01
KVOA 160055Z AUTO 01010KT 7SM OVC075 14/08 A3018 RMK A01
KVOA 160035Z AUTO 02013KT 6SM HZ OVC070 14/08 A3017 RMK A01
KVOA 160015Z AUTO 02013KT 6SM HZ OVC070 14/08 A3016 RMK A01
KVOA 152355Z AUTO 36010G17KT 6SM HZ FEW032 FEW038 OVC075 14/08 A3016 RMK A01
KVOA 152335Z AUTO 01012G18KT 6SM HZ FEW032 BKN038 OVC070 13/07 A3015 RMK A01
KVOA 152315Z AUTO 01013G18KT 6SM HZ FEW047 SCT055 OVC070 13/08 A3015 RMK A01
KVOA 152255Z AUTO 01014G19KT 6SM HZ OVC065 13/07 A3014 RMK A01
KVOA 152235Z AUTO 01014G20KT 6SM HZ OVC060 13/07 A3014 RMK A01
KVOA 152215Z AUTO 36011G18KT 6SM HZ OVC060 13/06 A3015 RMK A01
KVOA 152155Z AUTO 01014KT 6SM HZ BKN055 OVC065 14/07 A3014 RMK A01
KVOA 152135Z AUTO 01013G18KT 6SM HZ OVC070 14/07 A3013 RMK A01
KVOA 152115Z AUTO 01015KT 6SM HZ BKN070 BKN080 14/07 A3012 RMK A01
KVOA 152055Z AUTO 01014G20KT 6SM HZ FEW060 SCT075 13/07 A3012 RMK A01
KVOA 152035Z AUTO 36014G20KT 6SM HZ SCT060 13/08 A3012 RMK A01
KVOA 152015Z AUTO 36015KT 5SM HZ SCT060 13/08 A3012 RMK A01
KVOA 151955Z AUTO 01014G22KT 5SM HZ FEW060 14/08 A3012 RMK A01
KVOA 151935Z AUTO 36012G18KT 5SM HZ FEW035 SCT060 14/09 A3012 RMK A01
KVOA 151915Z AUTO 36015G20KT 5SM HZ SCT060 14/09 A3012 RMK A01
KVOA 151855Z AUTO 01014KT 5SM HZ SCT050 BKN055 14/09 A3012 RMK A01
KVOA 151835Z AUTO 36013KT 4SM HZ OVC050 14/09 A3012 RMK A01
KVOA 151815Z AUTO 36012KT 5SM HZ OVC050 15/10 A3013 RMK A01
KVOA 151755Z AUTO 36011KT 5SM HZ OVC050 15/10 A3012 RMK A01
KVOA 151735Z AUTO 36012G18KT 3SM HZ SCT039 OVC048 15/10 A3013 RMK A01
KVOA 151715Z AUTO 36010KT 4SM HZ BKN037 BKN055 BKN065 15/10 A3014 RMK A01
KVOA 151655Z AUTO 36010KT 5SM HZ FEW080 16/10 A3014 RMK A01
KVOA 151635Z AUTO 36011KT 5SM HZ FEW090 16/10 A3014 RMK A01
KVOA 151615Z AUTO 36010KT 5SM HZ SCT090 16/09 A3014 RMK A01
KVOA 151555Z AUTO 36010G15KT 5SM HZ SCT090 16/10 A3013 RMK A01
KVOA 151535Z AUTO 36009KT 6SM HZ FEW075 BKN090 17/10 A3013 RMK A01
KVOA 151515Z AUTO 36009G14KT 6SM HZ SCT055 BKN075 BKN100 17/10 A3012 RMK A01
KVOA 151455Z AUTO 36010KT 6SM HZ BKN055 BKN065 BKN100 17/10 A3011 RMK A01
KVOA 151435Z AUTO 36008G14KT 6SM HZ BKN055 BKN100 17/10 A3009 RMK A01
KVOA 151415Z AUTO 36010KT 6SM HZ BKN060 BKN110 17/10 A3009 RMK A01
KVOA 151355Z AUTO 36010KT 5SM HZ OVC060 17/10 A3007 RMK A01
KVOA 151335Z AUTO 36008KT 6SM HZ OVC060 18/10 A3006 RMK A01
KVOA 151315Z AUTO 36006KT 6SM HZ BKN065 BKN110 18/11 A3005 RMK A01
KVOA 151255Z AUTO 36007KT 5SM HZ SCT070 OVC120 18/11 A3005 RMK A01
KVOA 151235Z AUTO 36007G13KT 5SM HZ OVC120 18/12 A3004 RMK A01
KVOA 151215Z AUTO 36006KT 5SM HZ FEW050 OVC120 18/14 A3004 RMK A01
KVOA 151155Z AUTO 36007KT 4SM HZ FEW050 BKN120 18/14 A3003 RMK A01
KVOA 151135Z AUTO 01008KT 5SM HZ BKN120 18/14 A3002 RMK A01
KVOA 151115Z AUTO 01008KT 6SM HZ FEW019 SCT120 18/14 A3001 RMK A01
KVOA 151055Z AUTO 36006KT 5SM HZ SCT018 SCT024 19/14 A3001 RMK A01
KVOA 151035Z AUTO 01010KT 5SM HZ FEW055 19/14 A3000 RMK A01
KVOA 151015Z AUTO 35004G10KT 6SM HZ FEW018 FEW023 SCT055 19/14 A3001 RMK A01
KVOA 150955Z AUTO 32008KT 6SM HZ SCT018 SCT022 BKN028 20/14 A3001 RMK A01
KVOA 150935Z AUTO 32008KT 6SM HZ SCT018 SCT028 19/14 A3001 RMK A01
KVOA 150915Z AUTO 31010KT 6SM HZ SCT017 SCT042 SCT049 20/14 A3001 RMK A01
KVOA 150855Z AUTO 31009KT 6SM HZ FEW040 FEW048 SCT055 19/14 A3001 RMK A01
KVOA 150835Z AUTO 30009KT 5SM HZ SCT035 SCT040 BKN060 19/15 A3001 RMK A01